Time;durP1;ratioP1;P1;durP2;ratioP2;P2;SDS_P1;SDS_P2;PMS_P1;PMS_P2;Temp;Humidity;BMP_temperature;BMP_pressure;BME280_temperature;BME280_humidity;BME280_pressure;Samples;Min_cycle;Max_cycle;Signal;HPM_P1;HPM_P2
2023/07/19 00:19:46;;;;;;;6.68;3.75;;;;;;;25.61;44.51;98696.31;4898929;28;21310;-74
2023/07/19 00:22:13;;;;;;;6.05;4.45;;;;;;;25.61;44.40;98690.88;5015012;28;20106;-73
2023/07/19 00:24:40;;;;;;;5.35;3.97;;;;;;;25.54;44.35;98690.84;5065517;28;20036;-72
2023/07/19 00:27:07;;;;;;;4.82;3.22;;;;;;;25.42;44.87;98693.25;5065812;28;20090;-73
2023/07/19 00:29:33;;;;;;;5.80;4.18;;;;;;;25.55;44.29;98695.22;5066985;28;20045;-73
2023/07/19 00:32:00;;;;;;;7.18;4.30;;;;;;;25.53;44.55;98711.69;5066400;28;20064;-73
2023/07/19 00:34:27;;;;;;;6.60;4.15;;;;;;;25.57;44.31;98717.56;5066485;28;20041;-72
2023/07/19 00:36:55;;;;;;;5.85;4.13;;;;;;;25.44;44.63;98721.00;5048350;28;20235;-73
2023/07/19 00:39:21;;;;;;;6.22;3.72;;;;;;;25.50;44.35;98725.66;5065647;28;20053;-72
2023/07/19 00:41:48;;;;;;;5.15;3.92;;;;;;;25.43;44.22;98719.31;5065140;28;20045;-72
2023/07/19 00:44:15;;;;;;;5.53;3.70;;;;;;;25.37;44.29;98701.13;5065098;28;20044;-73
2023/07/19 00:46:41;;;;;;;5.75;3.95;;;;;;;25.35;44.26;98708.63;5048410;28;20108;-75
2023/07/19 00:49:09;;;;;;;5.18;4.00;;;;;;;25.08;43.99;98666.81;5047517;28;20242;-72
2023/07/19 00:51:36;;;;;;;5.57;3.65;;;;;;;25.43;43.61;98696.78;5047809;28;20044;-73
2023/07/19 00:54:06;;;;;;;5.65;3.90;;;;;;;25.41;43.53;98688.00;5065227;28;20064;-73
2023/07/19 00:56:34;;;;;;;6.20;3.92;;;;;;;25.41;43.69;98666.31;5064932;28;20227;-73
2023/07/19 00:59:02;;;;;;;5.30;3.03;;;;;;;25.41;43.28;98648.16;5047513;28;20037;-73
2023/07/19 01:01:29;;;;;;;6.22;3.88;;;;;;;24.56;43.36;98488.25;5065205;28;20072;-73
2023/07/19 01:03:56;;;;;;;6.55;3.95;;;;;;;25.41;43.33;98639.19;5047454;28;20040;-73
2023/07/19 01:06:23;;;;;;;4.45;3.45;;;;;;;25.46;43.09;98623.16;5065038;28;20319;-73
2023/07/19 01:08:50;;;;;;;8.05;3.97;;;;;;;25.47;43.13;98638.41;5067827;28;20103;-72
2023/07/19 01:11:18;;;;;;;5.68;3.83;;;;;;;25.43;43.25;98653.38;5068676;28;20094;-73
2023/07/19 01:13:51;;;;;;;7.38;3.65;;;;;;;25.36;43.31;98653.34;5051149;28;20049;-73
2023/07/19 01:16:18;;;;;;;4.50;3.37;;;;;;;25.40;43.36;98648.34;5068881;28;20040;-73
2023/07/19 01:18:45;;;;;;;7.55;3.58;;;;;;;24.91;43.21;98587.59;5068597;28;20296;-73
2023/07/19 01:21:12;;;;;;;5.55;3.83;;;;;;;25.30;43.20;98642.41;5050757;28;20308;-73
2023/07/19 01:23:40;;;;;;;7.43;3.70;;;;;;;25.36;43.10;98633.50;5068604;28;20044;-70
2023/07/19 01:26:08;;;;;;;6.72;3.67;;;;;;;25.31;42.92;98642.19;5068382;28;20102;-70
2023/07/19 01:28:35;;;;;;;6.03;3.65;;;;;;;25.07;42.65;98599.25;5051852;28;20224;-71
2023/07/19 01:31:05;;;;;;;5.65;3.60;;;;;;;25.31;42.91;98652.22;5051405;28;20045;-70
2023/07/19 01:33:32;;;;;;;5.50;3.85;;;;;;;24.99;43.03;98588.50;5051196;28;20047;-70
2023/07/19 01:35:59;;;;;;;6.38;3.75;;;;;;;25.25;43.05;98649.25;5051643;28;20045;-70
2023/07/19 01:38:25;;;;;;;4.75;3.65;;;;;;;25.26;43.36;98637.38;5068117;28;20387;-70
2023/07/19 01:40:55;;;;;;;6.18;3.80;;;;;;;25.32;42.88;98633.06;5068497;28;20045;-73
2023/07/19 01:43:22;;;;;;;6.55;3.65;;;;;;;25.30;43.18;98634.25;5067911;28;20052;-73
2023/07/19 01:45:48;;;;;;;5.50;3.85;;;;;;;25.08;43.11;98611.75;5067789;28;20058;-73
2023/07/19 01:48:16;;;;;;;6.07;3.53;;;;;;;25.33;43.08;98636.63;5068440;28;20059;-73
2023/07/19 01:50:47;;;;;;;4.82;3.60;;;;;;;25.28;42.88;98646.16;5051072;28;20041;-73
2023/07/19 01:53:14;;;;;;;6.05;3.60;;;;;;;25.30;42.83;98645.94;5067882;28;20041;-73
2023/07/19 01:55:40;;;;;;;6.50;3.72;;;;;;;24.57;43.02;98523.25;5050839;28;20052;-71
2023/07/19 01:58:09;;;;;;;6.03;4.25;;;;;;;25.26;43.00;98650.94;5068026;28;20303;-70
2023/07/19 02:00:36;;;;;;;5.13;3.47;;;;;;;25.21;43.07;98664.22;5068324;28;20049;-70
2023/07/19 02:03:04;;;;;;;6.72;3.83;;;;;;;25.23;43.03;98666.75;5067354;28;20114;-70
2023/07/19 02:05:31;;;;;;;9.27;3.97;;;;;;;24.63;43.08;98586.66;5067817;28;20040;-71
2023/07/19 02:07:57;;;;;;;6.25;3.60;;;;;;;25.21;43.07;98672.38;5067807;28;20049;-70
2023/07/19 02:10:24;;;;;;;5.45;3.85;;;;;;;24.87;42.93;98612.56;5049996;28;20041;-71
2023/07/19 02:12:51;;;;;;;6.45;3.83;;;;;;;25.26;42.87;98663.66;5050326;28;20037;-69
2023/07/19 02:15:19;;;;;;;5.32;3.80;;;;;;;25.21;43.01;98671.53;5067377;28;20044;-70
2023/07/19 02:17:46;;;;;;;7.05;4.05;;;;;;;25.13;42.87;98672.50;5067581;28;20173;-70
2023/07/19 02:20:13;;;;;;;5.60;3.88;;;;;;;24.88;42.96;98627.81;5066612;28;20040;-70
2023/07/19 02:22:40;;;;;;;6.13;3.50;;;;;;;24.99;43.07;98646.25;5067502;28;20067;-70
2023/07/19 02:25:08;;;;;;;6.50;4.22;;;;;;;25.13;43.35;98674.38;5067117;28;20041;-69
2023/07/19 02:27:34;;;;;;;5.55;3.47;;;;;;;24.82;43.53;98644.84;5050006;28;20037;-70
2023/07/19 02:30:01;;;;;;;5.03;3.53;;;;;;;25.07;43.76;98673.28;5067465;28;20059;-71
2023/07/19 02:32:29;;;;;;;5.57;3.85;;;;;;;25.06;44.11;98663.47;5067065;28;20236;-70
2023/07/19 02:34:56;;;;;;;6.97;4.15;;;;;;;25.05;43.70;98667.22;5067024;28;20281;-70
2023/07/19 02:37:23;;;;;;;7.00;4.20;;;;;;;24.98;43.62;98671.69;5049497;28;20044;-70
2023/07/19 02:39:49;;;;;;;6.85;4.13;;;;;;;24.90;43.20;98672.66;5066911;28;20091;-71
2023/07/19 02:42:16;;;;;;;8.50;3.83;;;;;;;24.94;43.56;98676.66;5049279;28;20102;-70
2023/07/19 02:44:43;;;;;;;7.97;3.90;;;;;;;24.93;43.41;98669.56;5049316;28;20264;-70
2023/07/19 02:47:12;;;;;;;7.53;3.67;;;;;;;22.41;43.54;98264.34;5066984;28;20037;-70
2023/07/19 02:49:40;;;;;;;7.13;4.15;;;;;;;24.88;43.60;98676.59;5049315;28;20065;-71
2023/07/19 02:52:07;;;;;;;8.38;3.70;;;;;;;24.84;43.88;98689.69;5066652;28;20052;-71
2023/07/19 02:54:34;;;;;;;6.55;4.55;;;;;;;24.83;43.97;98679.88;5066448;28;20239;-71
2023/07/19 02:57:01;;;;;;;5.43;4.47;;;;;;;24.80;44.16;98691.09;5067098;28;20037;-71
2023/07/19 02:59:27;;;;;;;5.55;3.72;;;;;;;24.88;43.81;98684.72;5067051;28;20052;-71
2023/07/19 03:01:54;;;;;;;6.55;3.97;;;;;;;24.85;44.18;98690.53;5066759;28;20322;-71
2023/07/19 03:04:21;;;;;;;6.43;3.63;;;;;;;24.73;44.27;98662.25;5066699;28;20041;-71
2023/07/19 03:06:49;;;;;;;6.30;3.80;;;;;;;24.64;44.41;98656.91;5066310;28;20045;-71
2023/07/19 03:09:16;;;;;;;5.88;3.38;;;;;;;24.83;44.49;98693.41;5048837;28;20064;-70
2023/07/19 03:11:42;;;;;;;6.07;3.97;;;;;;;24.71;44.59;98673.28;5032668;28;20044;-71
2023/07/19 03:14:09;;;;;;;6.07;4.78;;;;;;;24.82;44.64;98691.75;5066788;28;20198;-71
2023/07/19 03:16:36;;;;;;;5.97;4.35;;;;;;;24.72;44.87;98691.22;5066160;28;20094;-71
2023/07/19 03:19:03;;;;;;;6.05;3.90;;;;;;;24.80;44.87;98690.25;5066658;28;20120;-71
2023/07/19 03:21:30;;;;;;;5.55;3.75;;;;;;;24.85;44.87;98695.94;5065971;28;20053;-71
2023/07/19 03:23:58;;;;;;;6.10;4.18;;;;;;;24.89;45.10;98702.66;5066546;28;20053;-71
2023/07/19 03:26:25;;;;;;;6.63;4.32;;;;;;;24.67;44.68;98671.13;5066519;28;20094;-71
2023/07/19 03:28:52;;;;;;;6.53;4.57;;;;;;;24.75;45.29;98706.25;5066199;28;20240;-71
2023/07/19 03:31:19;;;;;;;6.13;4.43;;;;;;;24.78;45.61;98714.84;5066311;28;20051;-71
2023/07/19 03:33:45;;;;;;;5.68;4.15;;;;;;;24.78;45.26;98719.41;5066053;28;20060;-71
2023/07/19 03:36:12;;;;;;;5.88;4.60;;;;;;;24.71;45.61;98718.50;5048392;28;20041;-71
2023/07/19 03:38:39;;;;;;;6.65;3.92;;;;;;;24.72;45.51;98722.88;5048265;28;20045;-71
2023/07/19 03:41:08;;;;;;;6.40;4.07;;;;;;;24.71;45.87;98719.34;5066318;28;20036;-71
2023/07/19 03:43:35;;;;;;;8.60;4.88;;;;;;;24.53;46.11;98703.47;5048262;28;20064;-71
2023/07/19 03:46:01;;;;;;;8.35;4.75;;;;;;;24.66;46.31;98721.78;5048142;28;20067;-70
2023/07/19 03:48:28;;;;;;;6.00;4.53;;;;;;;24.63;45.90;98722.13;5066174;28;20045;-72
2023/07/19 03:51:00;;;;;;;6.75;4.22;;;;;;;24.51;46.18;98713.66;5066164;28;20090;-72
2023/07/19 03:53:28;;;;;;;7.63;5.22;;;;;;;24.60;45.94;98709.81;5065877;28;20087;-71
2023/07/19 03:55:55;;;;;;;6.18;3.90;;;;;;;24.64;45.95;98711.09;5048585;28;20083;-72
2023/07/19 03:58:24;;;;;;;11.43;4.97;;;;;;;24.60;46.05;98712.50;5065709;28;20036;-71
2023/07/19 04:00:51;;;;;;;7.88;4.03;;;;;;;24.54;46.24;98710.56;5065705;28;20255;-71
2023/07/19 04:03:18;;;;;;;7.60;4.30;;;;;;;24.57;46.22;98702.06;5065687;28;20310;-71
2023/07/19 04:05:45;;;;;;;8.95;4.32;;;;;;;24.56;46.11;98689.53;5048116;28;20048;-71
2023/07/19 04:08:14;;;;;;;6.03;4.20;;;;;;;24.49;46.57;98693.19;5048564;28;20049;-71
2023/07/19 04:10:41;;;;;;;11.70;4.00;;;;;;;24.49;46.58;98699.44;5065581;28;20044;-71
2023/07/19 04:13:08;;;;;;;8.90;4.97;;;;;;;24.33;46.34;98668.00;5065538;28;20045;-72
2023/07/19 04:15:36;;;;;;;6.68;4.80;;;;;;;24.48;46.62;98695.06;5065237;28;20098;-72
2023/07/19 04:18:03;;;;;;;8.55;5.18;;;;;;;24.40;46.29;98681.63;5065258;28;20307;-72
2023/07/19 04:20:29;;;;;;;7.25;4.68;;;;;;;24.51;46.49;98683.84;5065500;28;20041;-71
2023/07/19 04:22:56;;;;;;;5.55;4.65;;;;;;;24.56;46.12;98691.41;5044583;28;20064;-72
2023/07/19 04:25:24;;;;;;;6.72;4.30;;;;;;;24.45;46.63;98690.03;5044817;28;20049;-71
2023/07/19 04:27:52;;;;;;;6.05;4.25;;;;;;;24.46;46.96;98694.41;5044316;28;20296;-71
2023/07/19 04:30:18;;;;;;;6.43;4.13;;;;;;;24.32;46.67;98660.06;5044568;28;20049;-71
2023/07/19 04:32:48;;;;;;;6.97;5.00;;;;;;;24.42;46.99;98686.84;5045719;28;20056;-71
2023/07/19 04:35:15;;;;;;;7.60;4.57;;;;;;;24.36;47.12;98695.72;5045402;28;20104;-71
2023/07/19 04:37:42;;;;;;;6.90;4.38;;;;;;;24.35;47.25;98683.22;5044774;28;20045;-71
2023/07/19 04:40:09;;;;;;;7.05;4.63;;;;;;;24.33;47.33;98672.56;5045098;28;20104;-71
2023/07/19 04:42:37;;;;;;;7.00;4.28;;;;;;;24.38;47.33;98680.13;5046534;28;20104;-71
2023/07/19 04:45:04;;;;;;;7.53;3.90;;;;;;;24.39;47.52;98684.53;5049223;28;20053;-72
2023/07/19 04:47:31;;;;;;;7.60;5.10;;;;;;;24.44;47.15;98680.22;5049115;28;20292;-71
2023/07/19 04:49:59;;;;;;;7.03;4.55;;;;;;;24.43;47.43;98683.97;5049124;28;20103;-72
2023/07/19 04:52:26;;;;;;;9.98;5.22;;;;;;;24.39;47.39;98677.25;5048108;28;20122;-71
2023/07/19 04:54:53;;;;;;;6.10;4.30;;;;;;;24.44;47.13;98679.38;5049375;28;20049;-71
2023/07/19 04:57:20;;;;;;;5.63;4.65;;;;;;;24.17;47.82;98651.13;5031625;28;20037;-71
2023/07/19 04:59:47;;;;;;;9.95;5.40;;;;;;;24.32;47.69;98684.44;5048861;28;20060;-72
2023/07/19 05:02:14;;;;;;;5.93;4.57;;;;;;;24.43;47.44;98677.69;5049026;28;20111;-71
2023/07/19 05:04:41;;;;;;;7.25;3.78;;;;;;;24.31;47.73;98688.16;5049025;28;20248;-71
2023/07/19 05:07:09;;;;;;;6.55;4.45;;;;;;;24.36;47.34;98677.63;5047775;28;20080;-71
2023/07/19 05:09:35;;;;;;;5.97;4.28;;;;;;;24.29;47.68;98688.38;5048361;28;20089;-71
2023/07/19 05:12:02;;;;;;;11.02;5.38;;;;;;;24.30;47.56;98684.63;5048563;28;20091;-71
2023/07/19 05:14:29;;;;;;;12.23;4.78;;;;;;;24.31;47.62;98693.59;5048725;28;20336;-71
2023/07/19 05:16:56;;;;;;;6.78;5.03;;;;;;;24.29;47.83;98698.34;5047874;28;20309;-71
2023/07/19 05:19:23;;;;;;;6.45;4.60;;;;;;;24.40;47.67;98700.59;5048530;28;20037;-71
2023/07/19 05:21:50;;;;;;;10.07;5.20;;;;;;;24.25;47.50;98678.94;5058812;28;20370;-71
2023/07/19 05:24:18;;;;;;;9.27;4.82;;;;;;;24.23;47.64;98678.28;5068384;28;20051;-71
2023/07/19 05:26:46;;;;;;;8.02;5.10;;;;;;;24.41;47.46;98709.53;5068745;28;20047;-71
2023/07/19 05:29:12;;;;;;;7.78;5.20;;;;;;;24.47;47.28;98711.50;5068193;28;20063;-71
2023/07/19 05:31:39;;;;;;;9.68;4.40;;;;;;;24.26;47.46;98687.91;5050719;28;20037;-71
2023/07/19 05:34:07;;;;;;;8.68;5.07;;;;;;;24.24;47.46;98679.13;5068417;28;20045;-71
2023/07/19 05:36:34;;;;;;;6.82;5.20;;;;;;;23.90;47.25;98622.81;5068196;28;20308;-72
2023/07/19 05:39:02;;;;;;;6.07;4.15;;;;;;;24.50;47.17;98716.53;5068445;28;20047;-72
2023/07/19 05:41:30;;;;;;;6.25;4.80;;;;;;;24.31;47.48;98691.72;5068701;28;20059;-71
2023/07/19 05:43:57;;;;;;;6.65;4.32;;;;;;;24.28;47.13;98686.69;5068412;28;20052;-71
2023/07/19 05:46:25;;;;;;;10.30;4.90;;;;;;;24.49;47.22;98715.69;5068287;28;20040;-71
2023/07/19 05:48:53;;;;;;;9.32;4.32;;;;;;;24.52;47.22;98709.06;5068287;28;20280;-73
2023/07/19 05:51:20;;;;;;;6.32;4.38;;;;;;;24.55;47.21;98722.22;5068537;28;20055;-73
2023/07/19 05:53:47;;;;;;;6.10;4.18;;;;;;;24.58;47.18;98713.72;5067239;28;20069;-72
2023/07/19 05:56:13;;;;;;;7.15;4.15;;;;;;;24.62;47.31;98712.31;5068606;28;20045;-72
2023/07/19 05:58:42;;;;;;;8.27;5.15;;;;;;;24.59;47.54;98715.41;5050406;28;20037;-71
2023/07/19 06:01:09;;;;;;;5.82;4.50;;;;;;;24.58;47.56;98709.16;5067834;28;20273;-71
2023/07/19 06:03:36;;;;;;;7.72;4.65;;;;;;;24.33;47.51;98669.88;5067648;28;20037;-71
2023/07/19 06:06:05;;;;;;;6.95;4.57;;;;;;;24.56;47.67;98713.91;5050695;28;20056;-71
2023/07/19 06:08:33;;;;;;;6.50;4.57;;;;;;;24.29;47.81;98668.56;5067528;28;20112;-72
2023/07/19 06:11:00;;;;;;;6.50;4.43;;;;;;;24.56;47.84;98707.66;5067631;28;20045;-72
2023/07/19 06:13:27;;;;;;;8.55;4.30;;;;;;;24.58;47.64;98714.56;5049897;28;20220;-72
2023/07/19 06:15:56;;;;;;;11.27;5.20;;;;;;;24.66;47.57;98712.81;5067413;28;20049;-72
2023/07/19 06:18:23;;;;;;;8.48;4.30;;;;;;;24.50;47.96;98678.63;5049941;28;20066;-72
2023/07/19 06:20:50;;;;;;;7.95;4.38;;;;;;;24.69;47.60;98709.72;5050157;28;20288;-73
2023/07/19 06:23:17;;;;;;;6.22;4.40;;;;;;;24.54;47.40;98679.91;5067344;28;20305;-72
2023/07/19 06:25:46;;;;;;;7.82;4.05;;;;;;;24.77;47.40;98710.44;5067013;28;20107;-72
2023/07/19 06:28:13;;;;;;;6.78;3.72;;;;;;;24.84;47.38;98715.94;5067486;28;20049;-73
2023/07/19 06:30:40;;;;;;;6.82;4.50;;;;;;;24.80;47.52;98714.66;5049313;28;20045;-72
2023/07/19 06:33:08;;;;;;;8.10;4.43;;;;;;;24.80;47.30;98728.19;5049766;28;20079;-72
2023/07/19 06:35:35;;;;;;;5.75;4.95;;;;;;;24.82;47.40;98720.72;5066477;28;20065;-71
2023/07/19 06:38:02;;;;;;;6.55;4.70;;;;;;;24.91;47.25;98733.13;5049543;28;20297;-72
2023/07/19 06:40:29;;;;;;;8.10;5.10;;;;;;;24.91;47.21;98730.41;5067452;28;20041;-72
2023/07/19 06:42:56;;;;;;;7.93;4.68;;;;;;;24.93;47.25;98752.75;5067162;28;20059;-72
2023/07/19 06:45:23;;;;;;;6.30;5.43;;;;;;;24.96;47.04;98745.06;5067280;28;20049;-71
2023/07/19 06:47:50;;;;;;;9.23;6.03;;;;;;;25.04;47.30;98738.72;5049641;28;20045;-72
2023/07/19 06:50:18;;;;;;;6.97;4.75;;;;;;;25.05;47.02;98732.25;5066916;28;20052;-72
2023/07/19 06:52:45;;;;;;;6.28;4.70;;;;;;;25.12;46.78;98725.03;5066860;28;20090;-72
2023/07/19 06:55:11;;;;;;;6.05;4.40;;;;;;;25.17;46.89;98736.16;5066739;28;20188;-71
2023/07/19 06:57:38;;;;;;;9.48;4.70;;;;;;;24.77;46.40;98691.47;5049003;28;20045;-72
2023/07/19 07:00:06;;;;;;;8.68;3.83;;;;;;;25.24;46.23;98731.63;5049039;28;20037;-71
2023/07/19 07:02:33;;;;;;;8.27;5.00;;;;;;;25.31;46.31;98722.72;5049160;28;20231;-71
2023/07/19 07:05:00;;;;;;;6.53;4.45;;;;;;;25.22;45.74;98694.91;5066162;28;20098;-71
2023/07/19 07:07:28;;;;;;;7.35;4.28;;;;;;;25.46;45.79;98718.09;5066540;28;20083;-71
2023/07/19 07:09:57;;;;;;;5.80;4.50;;;;;;;25.55;45.55;98711.50;5066577;28;20106;-71
2023/07/19 07:12:24;;;;;;;10.52;5.28;;;;;;;25.67;44.87;98717.22;5048708;28;20041;-71
2023/07/19 07:14:51;;;;;;;8.98;3.67;;;;;;;25.85;44.50;98712.16;5049081;28;20112;-71
2023/07/19 07:17:18;;;;;;;7.35;4.30;;;;;;;26.05;43.70;98707.72;5066411;28;20301;-71
2023/07/19 07:19:44;;;;;;;5.85;3.95;;;;;;;26.21;43.29;98693.00;5066380;28;20146;-71
2023/07/19 07:22:11;;;;;;;7.20;4.07;;;;;;;26.41;42.31;98701.25;5065927;28;20118;-71
2023/07/19 07:24:41;;;;;;;8.15;3.88;;;;;;;26.40;42.32;98700.41;5066470;28;20094;-71
2023/07/19 07:27:08;;;;;;;6.30;4.22;;;;;;;26.49;41.78;98699.19;5065861;28;20064;-71
2023/07/19 07:29:36;;;;;;;7.43;4.35;;;;;;;26.45;41.86;98656.31;5048446;28;20078;-71
2023/07/19 07:32:03;;;;;;;6.53;4.05;;;;;;;26.75;41.08;98693.06;5049318;28;20068;-70
2023/07/19 07:34:29;;;;;;;5.22;4.15;;;;;;;26.92;40.04;98692.69;5066615;28;20049;-71
2023/07/19 07:36:56;;;;;;;7.60;4.43;;;;;;;27.10;40.63;98698.38;5048462;28;20087;-71
2023/07/19 07:39:23;;;;;;;6.07;4.43;;;;;;;27.00;39.74;98666.13;5066129;28;20053;-71
2023/07/19 07:41:51;;;;;;;9.40;4.35;;;;;;;27.07;40.12;98693.34;5065806;28;20111;-71
2023/07/19 07:44:20;;;;;;;7.90;4.30;;;;;;;27.24;39.68;98697.38;5066141;28;20095;-72
2023/07/19 07:46:48;;;;;;;7.45;4.43;;;;;;;27.26;39.25;98684.41;5047964;28;20119;-71
2023/07/19 07:49:14;;;;;;;6.03;4.15;;;;;;;27.09;39.05;98689.38;5065747;28;20362;-71
2023/07/19 07:51:42;;;;;;;6.80;4.18;;;;;;;26.85;39.59;98635.56;5066106;28;20048;-70
2023/07/19 07:54:08;;;;;;;4.75;3.83;;;;;;;27.27;38.81;98685.25;5065804;28;20068;-70
2023/07/19 07:56:35;;;;;;;6.03;4.00;;;;;;;27.24;38.80;98699.25;5066107;28;20107;-70
2023/07/19 07:59:03;;;;;;;5.68;4.30;;;;;;;27.11;38.87;98717.19;5065481;28;20041;-70
2023/07/19 08:01:30;;;;;;;6.10;3.83;;;;;;;27.19;39.00;98703.41;5048315;28;20040;-70
2023/07/19 08:03:57;;;;;;;7.15;4.32;;;;;;;26.82;39.12;98646.88;5065734;28;20053;-70
2023/07/19 08:06:23;;;;;;;6.22;4.10;;;;;;;27.10;39.23;98701.09;5065623;28;20041;-70
2023/07/19 08:08:50;;;;;;;6.28;4.05;;;;;;;27.13;39.43;98708.84;5065591;28;20052;-71
2023/07/19 08:11:17;;;;;;;8.73;4.47;;;;;;;27.14;38.95;98707.78;5065426;28;20244;-71
2023/07/19 08:13:44;;;;;;;6.00;4.15;;;;;;;26.97;39.58;98722.81;5065454;28;20044;-71
2023/07/19 08:16:14;;;;;;;5.88;4.18;;;;;;;26.96;39.40;98711.09;5065490;28;20040;-72
2023/07/19 08:18:41;;;;;;;6.57;4.32;;;;;;;26.60;39.56;98642.59;5064500;28;20200;-72
2023/07/19 08:21:07;;;;;;;5.72;5.00;;;;;;;27.15;39.65;98694.00;5065457;28;20072;-71
2023/07/19 08:23:34;;;;;;;5.05;3.75;;;;;;;27.53;38.58;98681.69;5047701;28;20041;-71
2023/07/19 08:26:01;;;;;;;5.85;3.90;;;;;;;27.43;38.24;98668.50;5065394;28;20177;-71
2023/07/19 08:28:28;;;;;;;7.18;4.43;;;;;;;27.79;37.88;98671.66;5048230;28;20040;-71
2023/07/19 08:30:55;;;;;;;5.90;4.30;;;;;;;27.84;37.93;98676.50;5065378;28;20041;-71
2023/07/19 08:33:25;;;;;;;6.10;4.45;;;;;;;28.15;37.32;98674.97;5064926;28;20061;-71
2023/07/19 08:35:52;;;;;;;6.88;4.43;;;;;;;28.09;37.12;98693.84;5065323;28;20197;-71
2023/07/19 08:38:19;;;;;;;5.97;4.15;;;;;;;27.84;37.48;98667.50;5047580;28;20032;-71
2023/07/19 08:40:58;;;;;;;7.93;4.32;;;;;;;28.07;36.84;98674.16;5047468;28;20334;-71
2023/07/19 08:43:27;;;;;;;5.03;4.28;;;;;;;28.35;36.71;98686.66;5047910;28;20040;-72
2023/07/19 08:45:54;;;;;;;6.50;4.20;;;;;;;28.25;36.39;98689.00;5065120;28;20053;-71
2023/07/19 08:48:23;;;;;;;6.30;4.40;;;;;;;28.40;36.90;98665.03;5065447;28;20071;-71
2023/07/19 08:50:54;;;;;;;5.97;4.60;;;;;;;28.81;36.65;98688.38;5064829;28;20049;-71
2023/07/19 08:53:22;;;;;;;6.43;3.78;;;;;;;28.46;35.94;98611.59;5064974;28;20092;-71
2023/07/19 08:55:48;;;;;;;4.93;3.85;;;;;;;28.72;35.57;98672.25;5047601;28;20239;-72
2023/07/19 08:58:17;;;;;;;6.03;3.90;;;;;;;28.56;35.41;98620.97;5064879;28;20041;-72
2023/07/19 09:00:45;;;;;;;9.35;4.80;;;;;;;28.99;34.80;98664.75;5065222;28;20232;-72
2023/07/19 09:03:12;;;;;;;9.45;4.43;;;;;;;29.23;34.93;98671.34;5064803;28;20060;-72
2023/07/19 09:05:40;;;;;;;6.13;3.75;;;;;;;29.19;34.86;98674.75;5064795;28;20087;-72
2023/07/19 09:08:09;;;;;;;6.32;3.97;;;;;;;29.04;34.51;98628.69;5064640;28;20111;-72
2023/07/19 09:10:36;;;;;;;5.95;4.25;;;;;;;29.66;34.89;98670.63;5065301;28;20041;-72
2023/07/19 09:13:05;;;;;;;8.40;4.30;;;;;;;29.56;34.17;98675.72;5064698;28;20311;-72
2023/07/19 09:15:34;;;;;;;5.05;3.88;;;;;;;29.31;34.28;98672.97;5064942;28;20049;-71
2023/07/19 09:18:03;;;;;;;9.07;4.03;;;;;;;29.51;34.33;98670.91;5064882;28;20320;-72
2023/07/19 09:20:30;;;;;;;5.75;4.00;;;;;;;29.58;33.88;98671.72;5064699;28;20052;-71
2023/07/19 09:22:58;;;;;;;8.52;3.72;;;;;;;28.71;34.16;98530.72;5064713;28;20144;-71
2023/07/19 09:25:25;;;;;;;16.48;4.53;;;;;;;29.39;33.82;98665.34;5064915;28;20055;-72
2023/07/19 09:27:54;;;;;;;8.25;4.03;;;;;;;29.58;33.90;98660.81;5047713;28;20052;-72
2023/07/19 09:30:21;;;;;;;6.80;3.78;;;;;;;29.35;33.19;98627.81;5050577;28;20041;-71
2023/07/19 09:32:59;;;;;;;6.95;4.20;;;;;;;29.25;34.04;98641.94;5068501;28;20045;-72
2023/07/19 09:35:28;;;;;;;5.72;4.15;;;;;;;29.40;34.07;98666.19;5050669;28;20083;-71
2023/07/19 09:37:55;;;;;;;6.57;3.42;;;;;;;29.35;34.13;98655.09;5050602;28;20048;-71
2023/07/19 09:40:24;;;;;;;6.88;4.07;;;;;;;29.67;34.95;98645.81;5068565;28;20075;-71
2023/07/19 09:42:50;;;;;;;8.38;4.70;;;;;;;29.70;34.20;98644.53;5068251;28;20059;-71
2023/07/19 09:45:18;;;;;;;8.23;4.75;;;;;;;29.85;33.92;98641.44;5050533;28;20079;-71
2023/07/19 09:47:46;;;;;;;5.82;4.40;;;;;;;29.49;34.11;98614.88;5050674;28;20086;-71
2023/07/19 09:50:13;;;;;;;5.30;3.88;;;;;;;29.26;34.45;98653.69;5050276;28;20068;-71
2023/07/19 09:52:40;;;;;;;7.20;4.75;;;;;;;28.86;34.28;98618.50;5050362;28;20049;-71
2023/07/19 09:55:08;;;;;;;5.50;3.95;;;;;;;29.01;35.08;98651.78;5050294;28;20048;-72
2023/07/19 09:57:41;;;;;;;5.65;3.53;;;;;;;28.96;35.48;98643.38;5067880;28;20064;-72
2023/07/19 10:00:10;;;;;;;7.93;4.73;;;;;;;28.88;35.33;98629.19;5050651;28;20036;-71
2023/07/19 10:02:37;;;;;;;5.30;4.55;;;;;;;28.80;35.08;98633.00;5050250;28;20049;-71
2023/07/19 10:05:08;;;;;;;6.53;4.35;;;;;;;28.77;35.41;98630.72;5049922;28;20365;-72
2023/07/19 10:07:35;;;;;;;5.15;4.07;;;;;;;28.50;35.68;98612.81;5068069;28;20045;-71
2023/07/19 10:10:04;;;;;;;6.45;4.22;;;;;;;28.49;36.40;98630.22;5067715;28;20048;-71
2023/07/19 10:12:31;;;;;;;7.75;4.88;;;;;;;28.48;36.96;98625.84;5067848;28;20166;-72
2023/07/19 10:15:03;;;;;;;8.38;4.45;;;;;;;28.43;36.55;98631.94;5067157;28;20060;-71
2023/07/19 10:17:31;;;;;;;7.43;4.72;;;;;;;28.53;36.80;98632.31;5067461;28;20100;-72
2023/07/19 10:20:05;;;;;;;9.38;4.53;;;;;;;28.32;36.32;98594.44;5049673;28;20124;-72
2023/07/19 10:22:53;;;;;;;8.32;4.00;;;;;;;28.57;36.68;98633.53;5067092;28;20317;-72
2023/07/19 10:25:25;;;;;;;5.05;3.33;;;;;;;28.67;36.67;98609.38;5066912;28;20055;-70
2023/07/19 10:28:00;;;;;;;6.57;4.53;;;;;;;28.85;36.15;98626.88;5067030;28;20143;-72
2023/07/19 10:30:50;;;;;;;7.43;4.43;;;;;;;28.76;36.27;98623.59;5067216;28;20045;-71
2023/07/19 10:33:19;;;;;;;5.35;3.75;;;;;;;28.54;35.79;98567.72;5067361;28;20181;-71
2023/07/19 10:35:48;;;;;;;6.78;4.60;;;;;;;28.81;36.12;98618.31;5033409;28;20110;-71
2023/07/19 10:38:15;;;;;;;7.00;4.63;;;;;;;28.23;36.22;98523.00;5067012;28;20052;-71
2023/07/19 10:40:45;;;;;;;7.72;4.05;;;;;;;28.97;35.47;98612.31;5066480;28;20044;-72
2023/07/19 10:43:12;;;;;;;6.45;3.97;;;;;;;28.85;35.39;98603.19;5049797;28;20108;-71
2023/07/19 10:45:40;;;;;;;5.50;3.97;;;;;;;28.70;35.40;98610.81;5049864;28;20041;-72
2023/07/19 10:48:09;;;;;;;6.25;3.53;;;;;;;28.63;35.13;98594.50;5049068;28;20056;-72
2023/07/19 10:50:38;;;;;;;5.40;3.80;;;;;;;28.46;35.57;98562.53;5066809;28;20037;-71
2023/07/19 10:53:05;;;;;;;5.63;4.20;;;;;;;28.96;35.20;98598.91;5066635;28;20211;-71
2023/07/19 10:55:32;;;;;;;6.65;3.65;;;;;;;29.01;34.65;98602.69;5049253;28;20105;-71
2023/07/19 10:57:58;;;;;;;4.97;3.33;;;;;;;29.18;34.51;98615.78;5048855;28;20208;-70
2023/07/19 11:00:25;;;;;;;6.53;4.20;;;;;;;28.88;34.78;98578.19;5066891;28;20098;-70
2023/07/19 11:02:53;;;;;;;5.57;4.15;;;;;;;29.09;35.33;98607.03;5066366;28;20045;-70
2023/07/19 11:05:22;;;;;;;12.40;4.40;;;;;;;29.04;34.34;98620.50;5048772;28;20045;-70
2023/07/19 11:07:50;;;;;;;6.10;3.95;;;;;;;29.01;34.05;98591.75;5066290;28;20251;-70
2023/07/19 11:10:17;;;;;;;6.32;3.42;;;;;;;29.18;33.87;98613.88;5048806;28;20045;-70
2023/07/19 11:12:45;;;;;;;6.43;3.70;;;;;;;29.23;34.04;98605.88;5066281;28;20041;-71
2023/07/19 11:15:11;;;;;;;6.53;4.20;;;;;;;29.11;34.68;98596.72;5066194;28;20051;-70
2023/07/19 11:17:39;;;;;;;6.60;4.03;;;;;;;28.82;34.95;98543.63;5066584;28;20059;-70
2023/07/19 11:20:08;;;;;;;7.68;3.70;;;;;;;28.98;35.00;98553.16;5049077;28;20056;-71
2023/07/19 11:22:36;;;;;;;6.30;4.30;;;;;;;29.27;35.40;98584.44;5066137;28;20068;-71
2023/07/19 11:25:10;;;;;;;6.95;3.47;;;;;;;29.16;35.40;98550.50;5048780;28;20182;-71
2023/07/19 11:27:39;;;;;;;;;;;;;;;29.58;35.30;98570.72;5066898;28;20071;-71
2023/07/19 11:30:07;;;;;;;7.72;4.53;;;;;;;29.53;35.45;98573.25;5065784;28;19923;-71
2023/07/19 11:32:34;;;;;;;5.88;3.88;;;;;;;29.58;35.02;98581.63;5065835;28;20064;-72
2023/07/19 11:35:02;;;;;;;8.63;4.70;;;;;;;29.69;35.28;98572.69;5065918;28;20037;-72
2023/07/19 11:37:31;;;;;;;6.55;3.67;;;;;;;29.26;34.94;98539.09;5048847;28;20098;-71
2023/07/19 11:40:04;;;;;;;6.35;3.65;;;;;;;29.35;34.99;98559.56;5048107;28;20044;-71
2023/07/19 11:42:45;;;;;;;5.97;3.95;;;;;;;29.29;34.58;98564.03;5048712;28;20045;-71
2023/07/19 11:45:15;;;;;;;7.60;4.10;;;;;;;28.94;34.76;98519.19;5065936;28;20041;-71
2023/07/19 11:47:43;;;;;;;8.05;3.60;;;;;;;29.42;35.02;98565.81;5065858;28;20220;-71
2023/07/19 11:50:12;;;;;;;6.05;4.03;;;;;;;29.15;35.43;98523.47;5048590;28;20064;-72
2023/07/19 11:52:48;;;;;;;7.00;3.80;;;;;;;28.90;35.02;98474.34;5047924;28;20037;-71
2023/07/19 11:55:18;;;;;;;7.70;4.63;;;;;;;29.36;35.08;98520.31;5065394;28;20067;-71